Olmito, Texas
Current Conditions -  °F | °C
As of 7:53 PM on Friday 28 Nov 2014 (Local Time) from KBRO Reporting Station
Clear Clear  
Wind Chill: 64°   Ceiling: Unl
Heat Index: 64°   Visibility: 10mi
Dew Point: 60°   Wind: 8mph
Humidity: 87%   Direction: 130°SE
Pressure: 30.18"   Gusts: NA
Location:  26.02°N, 97.53°W
Report Text: KBRO 290153Z 13007KT 10SM CLR 18/16 A3018 RMK AO2 SLP218 T01780156
Loading
Personal Weather Stations






























Interactive Weather Map New forecast layout! Learn more

10-Day Weather Forecast

Advertisements
Track Severe Weather on mobile